Página principal
METAR-TAF:

METAR-TAF

Aeroportos :

Aeroporto Internacional General Gregorio Luperón

Puerto Plata, República Dominicana

latitude: 19-45N, longitude: 070-33W, altura: 15 m

Observação actual do tempo

O boletim foi feito há 44 minutos, às 23:00 UTC
Vento calmo
Temperatura 24°C
Humidade 94%
Pressão 1016 hPa
Visibilidade 10 km ou mais
Nuvens fragmentadasa uma altura de 1800 ft

METAR: MDPP 022300Z 00000KT 9999 BKN018 24/23 Q1016 RERA

Hora: 19:44 (23:44 UTC)

Previsão

O boletim foi feito há 1 hora e 44 minutos, às 22:00 UTC
Previsão válida de 03 às 00 UTC a 03 às 24 UTC
Vento 10 kt de es-sudeste
Visibilidade 10 km ou mais
Nuvens dispersasa uma altura de 1800 ft
Probabilidade 30%
de 03 às 00 UTC a 03 às 06 UTC
Visibilidade: 7000 m
Nuvens dispersasa uma altura de 1600 ft
Nuvens fragmentadasa uma altura de 7000 ft
chuva fraca

TAF: MDPP 022200Z 0300/0324 12010KT 9999 SCT018 PROB30 0300/0306 7000 -RA SCT016 BKN070

Observações e previsões do tempo de mais de 4000 aeroportos (mensagens METAR e TAF).

As estações disponíveis são os pontos amarelos e vermelhos sobre o mapa.

Mova o rato sobre o mapa para ver o nome da estação.

Depois clique no ponto para visualizar as observações e previsões meteorológicas.

Para alterar o mapa : clique nos botões verdes com uma cruz preta para aumentar o zoom; no botão verde com uma pitada de zoom; ou nas setas verdes para mapas adjacentes.


METAR-TAF: